Nicole Leigh Reinauer — WCZ5696 — position and weather

sailwx.info

Track history (hours):
 
Tides and Currents Weather Stations Pressure Air Temp Water Temp Dewpoint Dewpoint Depression Visibility Wind Speed Wind Dir Waves Ship Positions

Nicole Leigh Reinauer

Owner: H A REINAUER INC, STATEN ISLAND, NY. More information available from US FCC via Universal Licensing System and Coast Guard Vessel Documentation Center.

Last reported at 2017-Jan-20 19:27 UTC. Time now 2017-Jan-20 20:11 UTC.
Position N 40°57' W 073°55'.

Length 167 m; draft 8 m.

Type: Tanker. MMSI: 366774330.

Date/timePositionNaut miles runAvg speedWind from/ knotsBaromVisibWave heightAir tempDewpointWater temp
2017-Jan-20 19:27N 40°57' W 073°55'0 0.0
2017-Jan-20 17:30N 40°57' W 073°55'0 0.0
2017-Jan-20 16:33N 40°57' W 073°55'0 0.0
2017-Jan-20 15:24N 40°57' W 073°55'0 0.0
2017-Jan-20 14:12N 40°57' W 073°55'0 0.0
2017-Jan-20 13:09N 40°57' W 073°55'0 0.0
2017-Jan-20 11:33N 40°57' W 073°55'0 0.2
2017-Jan-20 10:09N 40°57' W 073°54'0 0.0
2017-Jan-20 09:30N 40°57' W 073°54'0 0.0
2017-Jan-20 08:33N 40°57' W 073°54'0 0.0
2017-Jan-20 07:33N 40°57' W 073°54'0 0.1
2017-Jan-20 06:30N 40°57' W 073°54'0 0.2
2017-Jan-20 05:21N 40°57' W 073°55'0 0.0
2017-Jan-20 03:27N 40°57' W 073°55'0 0.0
2017-Jan-20 02:33N 40°57' W 073°55'0 0.0
2017-Jan-20 01:15N 40°57' W 073°55'0 0.0
2017-Jan-20 00:30N 40°57' W 073°55'0 0.0
2017-Jan-19 23:33N 40°57' W 073°55'0 0.0
2017-Jan-19 22:18N 40°57' W 073°55'0 0.0
2017-Jan-19 21:30N 40°57' W 073°55'0 0.2
2017-Jan-19 20:27N 40°57' W 073°54'0 0.0
2017-Jan-19 19:24N 40°57' W 073°54'0 0.1
2017-Jan-19 18:33N 40°57' W 073°54'0 0.1
2017-Jan-19 17:27N 40°57' W 073°55'0 0.0
2017-Jan-19 16:03N 40°57' W 073°55'0 0.0
2017-Jan-19 15:12N 40°57' W 073°55'0 0.0
2017-Jan-19 14:03N 40°57' W 073°55'0 0.0
2017-Jan-19 13:30N 40°57' W 073°55'0 0.0
2017-Jan-19 12:18N 40°57' W 073°55'0 0.0
2017-Jan-19 11:30N 40°57' W 073°55'0 0.2
2017-Jan-19 10:33N 40°57' W 073°55'0 0.1
2017-Jan-19 09:33N 40°57' W 073°54'0 0.0
2017-Jan-19 08:33N 40°57' W 073°54'0 0.0
2017-Jan-19 07:27N 40°57' W 073°54'0 0.0
2017-Jan-19 06:33N 40°57' W 073°54'0 0.1
2017-Jan-19 05:30N 40°57' W 073°55'0 0.2
2017-Jan-19 04:33N 40°57' W 073°55'0 0.0
2017-Jan-19 03:21N 40°57' W 073°55'0 0.0
2017-Jan-19 02:30N 40°57' W 073°55'0 0.0
2017-Jan-19 01:27N 40°57' W 073°55'0 0.0
2017-Jan-19 00:27N 40°57' W 073°55'0 0.0
2017-Jan-18 23:06N 40°57' W 073°55'0 0.0
2017-Jan-18 22:30N 40°57' W 073°55'0 0.2
2017-Jan-18 21:15N 40°57' W 073°55'0 0.0
2017-Jan-18 20:21N 40°57' W 073°55'0 0.0
2017-Jan-18 19:33N 40°57' W 073°54'0 0.0
2017-Jan-18 18:12N 40°57' W 073°55'0 0.0
2017-Jan-18 17:27N 40°57' W 073°55'0 0.2
2017-Jan-18 16:31N 40°57' W 073°55'0 0.1
2017-Jan-18 15:33N 40°57' W 073°55'0 0.0
2017-Jan-18 14:33N 40°57' W 073°55'0 0.0
2017-Jan-18 13:33N 40°57' W 073°55'0 0.2
2017-Jan-18 12:32N 40°57' W 073°55'8 8.1
2017-Jan-18 11:33N 40°49' W 073°58'0 0.1
2017-Jan-18 10:33N 40°49' W 073°58'7 6.5
2017-Jan-18 09:33N 40°43' W 074°01'4 3.9
2017-Jan-18 08:31N 40°39' W 074°03'0 0.1
2017-Jan-18 07:31N 40°39' W 074°03'0 0.1
2017-Jan-18 06:31N 40°40' W 074°03'0 0.0
2017-Jan-18 05:31N 40°40' W 074°03'0 0.0
2017-Jan-18 04:31N 40°40' W 074°03'0 0.2
2017-Jan-18 03:31N 40°39' W 074°03'0 0.0
2017-Jan-18 02:31N 40°39' W 074°03'0 0.0
2017-Jan-18 01:31N 40°39' W 074°03'0 0.0
2017-Jan-18 00:31N 40°39' W 074°03'0 0.0
2017-Jan-17 23:31N 40°39' W 074°03'0 0.0
2017-Jan-17 22:31N 40°39' W 074°03'0 0.0
2017-Jan-17 21:31N 40°39' W 074°03'0 0.0
2017-Jan-17 20:31N 40°39' W 074°03'0 0.2
2017-Jan-17 19:31N 40°39' W 074°03'0 0.1
2017-Jan-17 18:31N 40°40' W 074°03'0 0.0
2017-Jan-17 17:31N 40°40' W 074°03'0 0.0
2017-Jan-17 16:31N 40°40' W 074°03'0 0.1
2017-Jan-17 15:31N 40°40' W 074°03'0 0.1
2017-Jan-17 14:31N 40°40' W 074°03'0 0.2
2017-Jan-17 13:31N 40°39' W 074°03'0 0.0
2017-Jan-17 12:31N 40°39' W 074°03'0 0.0
2017-Jan-17 11:31N 40°39' W 074°03'0 0.0
2017-Jan-17 10:31N 40°39' W 074°03'0 0.0
2017-Jan-17 09:31N 40°39' W 074°03'0 0.0
2017-Jan-17 08:31N 40°39' W 074°03'0 0.0
2017-Jan-17 07:31N 40°39' W 074°03'0 0.2
2017-Jan-17 06:31N 40°39' W 074°03'0 0.1
2017-Jan-17 05:31N 40°40' W 074°03'0 0.0
2017-Jan-17 04:31N 40°40' W 074°03'0 0.0
2017-Jan-17 03:31N 40°40' W 074°03'0 0.1
2017-Jan-17 02:31N 40°40' W 074°03'0 0.1
2017-Jan-17 01:31N 40°39' W 074°03'0 0.1
2017-Jan-17 00:31N 40°39' W 074°03'0 0.0
2017-Jan-16 23:31N 40°39' W 074°03'0 0.0
2017-Jan-16 22:31N 40°39' W 074°03'0 0.0
2017-Jan-16 21:31N 40°39' W 074°03'0 0.0
2017-Jan-16 20:31N 40°39' W 074°03'4 3.8
2017-Jan-16 19:31N 40°38' W 074°08'0 0.0
2017-Jan-16 18:31N 40°38' W 074°08'0 0.0
2017-Jan-16 17:28N 40°38' W 074°08'4 4.0
2017-Jan-16 16:34N 40°39' W 074°03'0 0.4
2017-Jan-16 15:33N 40°40' W 074°03'0 0.0
2017-Jan-16 14:33N 40°40' W 074°03'0 0.1
2017-Jan-16 13:33N 40°40' W 074°03'0 0.1
2017-Jan-16 12:33N 40°39' W 074°03'0 0.0
2017-Jan-16 11:33N 40°39' W 074°03'0 0.0
2017-Jan-16 10:33N 40°39' W 074°03'0 0.0
2017-Jan-16 09:33N 40°39' W 074°03'0 0.0
2017-Jan-16 08:33N 40°39' W 074°03'0 0.0
2017-Jan-16 07:33N 40°39' W 074°03'0 0.0
2017-Jan-16 06:33N 40°39' W 074°03'0 0.1
2017-Jan-16 05:33N 40°39' W 074°03'0 0.1
2017-Jan-16 04:33N 40°40' W 074°03'0 0.0
2017-Jan-16 03:33N 40°40' W 074°03'0 0.0
2017-Jan-16 02:33N 40°40' W 074°03'0 0.1
2017-Jan-16 01:33N 40°40' W 074°03'0 0.2
2017-Jan-16 00:33N 40°39' W 074°03'0 0.1
2017-Jan-15 23:33N 40°39' W 074°03'0 0.0
2017-Jan-15 22:33N 40°39' W 074°03'0 0.0
2017-Jan-15 21:33N 40°39' W 074°03'0 0.0
2017-Jan-15 20:33N 40°39' W 074°03'0 0.0
2017-Jan-15 19:33N 40°39' W 074°03'0 0.0
2017-Jan-15 18:33N 40°39' W 074°03'0 0.1
2017-Jan-15 17:33N 40°39' W 074°03'0 0.1
2017-Jan-15 16:33N 40°40' W 074°03'0 0.0
2017-Jan-15 15:33N 40°40' W 074°03'0 0.0
2017-Jan-15 14:33N 40°40' W 074°03'0 0.0
2017-Jan-15 13:33N 40°40' W 074°03'0 0.1
2017-Jan-15 12:33N 40°39' W 074°03'0 0.1
2017-Jan-15 11:33N 40°39' W 074°03'0 0.0
2017-Jan-15 10:33N 40°39' W 074°03'0 0.0
2017-Jan-15 09:33N 40°39' W 074°03'0 0.0
2017-Jan-15 08:33N 40°39' W 074°03'0 0.0
2017-Jan-15 07:33N 40°39' W 074°03'0 0.0
2017-Jan-15 06:33N 40°39' W 074°03'0 0.1
2017-Jan-15 05:33N 40°39' W 074°03'0 0.1
2017-Jan-15 04:33N 40°40' W 074°03'0 0.1
2017-Jan-15 03:33N 40°40' W 074°03'0 0.0
2017-Jan-15 02:33N 40°40' W 074°03'0 0.1
2017-Jan-15 01:33N 40°40' W 074°03'0 0.0
2017-Jan-15 00:33N 40°40' W 074°03'0 0.2
2017-Jan-14 23:33N 40°39' W 074°03'0 0.0
2017-Jan-14 22:33N 40°39' W 074°03'0 0.0
2017-Jan-14 21:33N 40°39' W 074°03'0 0.0
2017-Jan-14 20:33N 40°39' W 074°03'0 0.0
2017-Jan-14 19:33N 40°39' W 074°03'0 0.0
2017-Jan-14 18:33N 40°39' W 074°03'0 0.1
2017-Jan-14 17:33N 40°39' W 074°03'0 0.2
2017-Jan-14 16:33N 40°39' W 074°03'0 0.1
2017-Jan-14 15:33N 40°40' W 074°03'0 0.0
2017-Jan-14 14:33N 40°40' W 074°03'0 0.0
2017-Jan-14 13:33N 40°40' W 074°03'0 0.0
2017-Jan-14 12:33N 40°40' W 074°03'0 0.2
2017-Jan-14 11:33N 40°40' W 074°03'0 0.1
2017-Jan-14 10:33N 40°39' W 074°03'0 0.0
2017-Jan-14 09:33N 40°39' W 074°03'0 0.0
2017-Jan-14 08:33N 40°39' W 074°03'0 0.0
2017-Jan-14 07:33N 40°39' W 074°03'0 0.0
2017-Jan-14 06:33N 40°39' W 074°03'0 0.0
2017-Jan-14 05:33N 40°39' W 074°03'0 0.0
2017-Jan-14 04:33N 40°39' W 074°03'0 0.2
2017-Jan-14 03:33N 40°40' W 074°03'4 1.0
2017-Jan-13 23:28N 40°42' W 073°58'0 0.0
2017-Jan-13 22:33N 40°42' W 073°58'0 0.0
2017-Jan-13 21:33N 40°42' W 073°58'0 0.1
2017-Jan-13 20:33N 40°42' W 073°59'8 8.0
2017-Jan-13 19:33N 40°38' W 074°08'0 0.0
2017-Jan-13 18:33N 40°38' W 074°08'0 0.0
2017-Jan-13 17:33N 40°38' W 074°08'5 4.5
2017-Jan-13 16:33N 40°36' W 074°12'4 3.7
2017-Jan-13 15:33N 40°33' W 074°15'0 0.1
2017-Jan-13 14:32N 40°33' W 074°15'7 7.1
2017-Jan-13 13:33N 40°39' W 074°11'10 9.8
2017-Jan-13 12:33N 40°42' W 073°59'0 0.5
2017-Jan-13 11:33N 40°42' W 073°58'0 0.0
2017-Jan-13 10:33N 40°42' W 073°58'0 0.2
2017-Jan-13 09:33N 40°42' W 073°59'8 7.8
2017-Jan-13 08:33N 40°39' W 074°08'7 6.5
2017-Jan-13 07:33N 40°33' W 074°13'2 1.8
2017-Jan-13 06:33N 40°33' W 074°15'5 4.6
2017-Jan-13 05:33N 40°37' W 074°12'8 8.0
2017-Jan-13 04:33N 40°40' W 074°03'4 3.9
2017-Jan-13 03:33N 40°42' W 073°58'0 0.1
2017-Jan-13 02:33N 40°42' W 073°58'5 4.6
2017-Jan-13 01:33N 40°39' W 074°03'4 3.5
2017-Jan-13 00:32N 40°36' W 074°01'0 0.0
2017-Jan-12 23:29N 40°36' W 074°01'0 0.0
2017-Jan-12 22:32N 40°36' W 074°01'0 0.0
2017-Jan-12 21:32N 40°36' W 074°01'0 0.1
2017-Jan-12 20:32N 40°36' W 074°01'0 0.0
2017-Jan-12 19:32N 40°36' W 074°01'0 0.1
2017-Jan-12 18:32N 40°36' W 074°01'0 0.0
2017-Jan-12 17:32N 40°36' W 074°01'0 0.1
2017-Jan-12 16:32N 40°36' W 074°01'0 0.0
2017-Jan-12 15:32N 40°36' W 074°01'0 0.0
2017-Jan-12 14:32N 40°36' W 074°01'0 0.2
2017-Jan-12 13:32N 40°36' W 074°01'0 0.1
2017-Jan-12 12:32N 40°36' W 074°01'0 0.2
2017-Jan-12 11:32N 40°36' W 074°01'0 0.1
2017-Jan-12 10:32N 40°36' W 074°01'0 0.0
2017-Jan-12 09:32N 40°36' W 074°01'0 0.0
2017-Jan-12 08:32N 40°36' W 074°01'0 0.2
2017-Jan-12 07:32N 40°36' W 074°01'0 0.0
2017-Jan-12 06:32N 40°36' W 074°01'0 0.0
2017-Jan-12 05:32N 40°36' W 074°01'0 0.0
2017-Jan-12 04:32N 40°36' W 074°01'0 0.0
2017-Jan-12 03:32N 40°36' W 074°01'0 0.0
2017-Jan-12 02:32N 40°36' W 074°01'0 0.1
2017-Jan-12 01:32N 40°36' W 074°01'0 0.1
2017-Jan-12 00:32N 40°36' W 074°02'0 0.1
2017-Jan-11 23:32N 40°36' W 074°01'0 0.0
2017-Jan-11 22:32N 40°36' W 074°01'0 0.0
2017-Jan-11 21:32N 40°36' W 074°01'0 0.0
2017-Jan-11 20:32N 40°36' W 074°01'0 0.1
2017-Jan-11 19:32N 40°36' W 074°02'1 0.8
2017-Jan-11 18:33N 40°36' W 074°03'3 3.2
2017-Jan-11 17:34N 40°39' W 074°04'2 1.6
2017-Jan-11 16:34N 40°40' W 074°02'6 5.9
2017-Jan-11 15:34N 40°46' W 074°01'3 2.8
2017-Jan-11 14:33N 40°48' W 073°59'0 0.0
2017-Jan-11 13:33N 40°48' W 073°59'0 0.0
2017-Jan-11 12:33N 40°48' W 073°59'0 0.0
2017-Jan-11 11:33N 40°48' W 073°59'0 0.0
2017-Jan-11 10:33N 40°48' W 073°59'0 0.0
2017-Jan-11 09:33N 40°48' W 073°59'0 0.1
2017-Jan-11 08:33N 40°48' W 073°59'0 0.2
2017-Jan-11 07:33N 40°48' W 073°59'0 0.0
2017-Jan-11 06:33N 40°48' W 073°59'0 0.0
2017-Jan-11 05:33N 40°48' W 073°59'0 0.0
2017-Jan-11 04:33N 40°48' W 073°59'2 1.5
2017-Jan-11 03:33N 40°47' W 073°60'2 2.4
2017-Jan-11 02:33N 40°46' W 073°57'10 9.9
2017-Jan-11 01:33N 40°51' W 073°45'  
Track history (hours):
 
Tides and Currents Weather Stations Pressure Air Temp Water Temp Dewpoint Dewpoint Depression Visibility Wind Speed Wind Dir Waves Ship Positions

Nicole Leigh Reinauer

Owner: H A REINAUER INC, STATEN ISLAND, NY. More information available from US FCC via Universal Licensing System and Coast Guard Vessel Documentation Center.

Last reported at 2017-Jan-20 19:27 UTC. Time now 2017-Jan-20 20:11 UTC.
Position N 40°57' W 073°55'.

Length 167 m; draft 8 m.

Type: Tanker. MMSI: 366774330.

Date/timePositionNaut miles runAvg speedWind from/ knotsBaromVisibWave heightAir tempDewpointWater temp
2017-Jan-20 19:27N 40°57' W 073°55'0 0.0
2017-Jan-20 17:30N 40°57' W 073°55'0 0.0
2017-Jan-20 16:33N 40°57' W 073°55'0 0.0
2017-Jan-20 15:24N 40°57' W 073°55'0 0.0
2017-Jan-20 14:12N 40°57' W 073°55'0 0.0
2017-Jan-20 13:09N 40°57' W 073°55'0 0.0
2017-Jan-20 11:33N 40°57' W 073°55'0 0.2
2017-Jan-20 10:09N 40°57' W 073°54'0 0.0
2017-Jan-20 09:30N 40°57' W 073°54'0 0.0
2017-Jan-20 08:33N 40°57' W 073°54'0 0.0
2017-Jan-20 07:33N 40°57' W 073°54'0 0.1
2017-Jan-20 06:30N 40°57' W 073°54'0 0.2
2017-Jan-20 05:21N 40°57' W 073°55'0 0.0
2017-Jan-20 03:27N 40°57' W 073°55'0 0.0
2017-Jan-20 02:33N 40°57' W 073°55'0 0.0
2017-Jan-20 01:15N 40°57' W 073°55'0 0.0
2017-Jan-20 00:30N 40°57' W 073°55'0 0.0
2017-Jan-19 23:33N 40°57' W 073°55'0 0.0
2017-Jan-19 22:18N 40°57' W 073°55'0 0.0
2017-Jan-19 21:30N 40°57' W 073°55'0 0.2
2017-Jan-19 20:27N 40°57' W 073°54'0 0.0
2017-Jan-19 19:24N 40°57' W 073°54'0 0.1
2017-Jan-19 18:33N 40°57' W 073°54'0 0.1
2017-Jan-19 17:27N 40°57' W 073°55'0 0.0
2017-Jan-19 16:03N 40°57' W 073°55'0 0.0
2017-Jan-19 15:12N 40°57' W 073°55'0 0.0
2017-Jan-19 14:03N 40°57' W 073°55'0 0.0
2017-Jan-19 13:30N 40°57' W 073°55'0 0.0
2017-Jan-19 12:18N 40°57' W 073°55'0 0.0
2017-Jan-19 11:30N 40°57' W 073°55'0 0.2
2017-Jan-19 10:33N 40°57' W 073°55'0 0.1
2017-Jan-19 09:33N 40°57' W 073°54'0 0.0
2017-Jan-19 08:33N 40°57' W 073°54'0 0.0
2017-Jan-19 07:27N 40°57' W 073°54'0 0.0
2017-Jan-19 06:33N 40°57' W 073°54'0 0.1
2017-Jan-19 05:30N 40°57' W 073°55'0 0.2
2017-Jan-19 04:33N 40°57' W 073°55'0 0.0
2017-Jan-19 03:21N 40°57' W 073°55'0 0.0
2017-Jan-19 02:30N 40°57' W 073°55'0 0.0
2017-Jan-19 01:27N 40°57' W 073°55'0 0.0
2017-Jan-19 00:27N 40°57' W 073°55'0 0.0
2017-Jan-18 23:06N 40°57' W 073°55'0 0.0
2017-Jan-18 22:30N 40°57' W 073°55'0 0.2
2017-Jan-18 21:15N 40°57' W 073°55'0 0.0
2017-Jan-18 20:21N 40°57' W 073°55'0 0.0
2017-Jan-18 19:33N 40°57' W 073°54'0 0.0
2017-Jan-18 18:12N 40°57' W 073°55'0 0.0
2017-Jan-18 17:27N 40°57' W 073°55'0 0.2
2017-Jan-18 16:31N 40°57' W 073°55'0 0.1
2017-Jan-18 15:33N 40°57' W 073°55'0 0.0
2017-Jan-18 14:33N 40°57' W 073°55'0 0.0
2017-Jan-18 13:33N 40°57' W 073°55'0 0.2
2017-Jan-18 12:32N 40°57' W 073°55'8 8.1
2017-Jan-18 11:33N 40°49' W 073°58'0 0.1
2017-Jan-18 10:33N 40°49' W 073°58'7 6.5
2017-Jan-18 09:33N 40°43' W 074°01'4 3.9
2017-Jan-18 08:31N 40°39' W 074°03'0 0.1
2017-Jan-18 07:31N 40°39' W 074°03'0 0.1
2017-Jan-18 06:31N 40°40' W 074°03'0 0.0
2017-Jan-18 05:31N 40°40' W 074°03'0 0.0
2017-Jan-18 04:31N 40°40' W 074°03'0 0.2
2017-Jan-18 03:31N 40°39' W 074°03'0 0.0
2017-Jan-18 02:31N 40°39' W 074°03'0 0.0
2017-Jan-18 01:31N 40°39' W 074°03'0 0.0
2017-Jan-18 00:31N 40°39' W 074°03'0 0.0
2017-Jan-17 23:31N 40°39' W 074°03'0 0.0
2017-Jan-17 22:31N 40°39' W 074°03'0 0.0
2017-Jan-17 21:31N 40°39' W 074°03'0 0.0
2017-Jan-17 20:31N 40°39' W 074°03'0 0.2
2017-Jan-17 19:31N 40°39' W 074°03'0 0.1
2017-Jan-17 18:31N 40°40' W 074°03'0 0.0
2017-Jan-17 17:31N 40°40' W 074°03'0 0.0
2017-Jan-17 16:31N 40°40' W 074°03'0 0.1
2017-Jan-17 15:31N 40°40' W 074°03'0 0.1
2017-Jan-17 14:31N 40°40' W 074°03'0 0.2
2017-Jan-17 13:31N 40°39' W 074°03'0 0.0
2017-Jan-17 12:31N 40°39' W 074°03'0 0.0
2017-Jan-17 11:31N 40°39' W 074°03'0 0.0
2017-Jan-17 10:31N 40°39' W 074°03'0 0.0
2017-Jan-17 09:31N 40°39' W 074°03'0 0.0
2017-Jan-17 08:31N 40°39' W 074°03'0 0.0
2017-Jan-17 07:31N 40°39' W 074°03'0 0.2
2017-Jan-17 06:31N 40°39' W 074°03'0 0.1
2017-Jan-17 05:31N 40°40' W 074°03'0 0.0
2017-Jan-17 04:31N 40°40' W 074°03'0 0.0
2017-Jan-17 03:31N 40°40' W 074°03'0 0.1
2017-Jan-17 02:31N 40°40' W 074°03'0 0.1
2017-Jan-17 01:31N 40°39' W 074°03'0 0.1
2017-Jan-17 00:31N 40°39' W 074°03'0 0.0
2017-Jan-16 23:31N 40°39' W 074°03'0 0.0
2017-Jan-16 22:31N 40°39' W 074°03'0 0.0
2017-Jan-16 21:31N 40°39' W 074°03'0 0.0
2017-Jan-16 20:31N 40°39' W 074°03'4 3.8
2017-Jan-16 19:31N 40°38' W 074°08'0 0.0
2017-Jan-16 18:31N 40°38' W 074°08'0 0.0
2017-Jan-16 17:28N 40°38' W 074°08'4 4.0
2017-Jan-16 16:34N 40°39' W 074°03'0 0.4
2017-Jan-16 15:33N 40°40' W 074°03'0 0.0
2017-Jan-16 14:33N 40°40' W 074°03'0 0.1
2017-Jan-16 13:33N 40°40' W 074°03'0 0.1
2017-Jan-16 12:33N 40°39' W 074°03'0 0.0
2017-Jan-16 11:33N 40°39' W 074°03'0 0.0
2017-Jan-16 10:33N 40°39' W 074°03'0 0.0
2017-Jan-16 09:33N 40°39' W 074°03'0 0.0
2017-Jan-16 08:33N 40°39' W 074°03'0 0.0
2017-Jan-16 07:33N 40°39' W 074°03'0 0.0
2017-Jan-16 06:33N 40°39' W 074°03'0 0.1
2017-Jan-16 05:33N 40°39' W 074°03'0 0.1
2017-Jan-16 04:33N 40°40' W 074°03'0 0.0
2017-Jan-16 03:33N 40°40' W 074°03'0 0.0
2017-Jan-16 02:33N 40°40' W 074°03'0 0.1
2017-Jan-16 01:33N 40°40' W 074°03'0 0.2
2017-Jan-16 00:33N 40°39' W 074°03'0 0.1
2017-Jan-15 23:33N 40°39' W 074°03'0 0.0
2017-Jan-15 22:33N 40°39' W 074°03'0 0.0
2017-Jan-15 21:33N 40°39' W 074°03'0 0.0
2017-Jan-15 20:33N 40°39' W 074°03'0 0.0
2017-Jan-15 19:33N 40°39' W 074°03'0 0.0
2017-Jan-15 18:33N 40°39' W 074°03'0 0.1
2017-Jan-15 17:33N 40°39' W 074°03'0 0.1
2017-Jan-15 16:33N 40°40' W 074°03'0 0.0
2017-Jan-15 15:33N 40°40' W 074°03'0 0.0
2017-Jan-15 14:33N 40°40' W 074°03'0 0.0
2017-Jan-15 13:33N 40°40' W 074°03'0 0.1
2017-Jan-15 12:33N 40°39' W 074°03'0 0.1
2017-Jan-15 11:33N 40°39' W 074°03'0 0.0
2017-Jan-15 10:33N 40°39' W 074°03'0 0.0
2017-Jan-15 09:33N 40°39' W 074°03'0 0.0
2017-Jan-15 08:33N 40°39' W 074°03'0 0.0
2017-Jan-15 07:33N 40°39' W 074°03'0 0.0
2017-Jan-15 06:33N 40°39' W 074°03'0 0.1
2017-Jan-15 05:33N 40°39' W 074°03'0 0.1
2017-Jan-15 04:33N 40°40' W 074°03'0 0.1
2017-Jan-15 03:33N 40°40' W 074°03'0 0.0
2017-Jan-15 02:33N 40°40' W 074°03'0 0.1
2017-Jan-15 01:33N 40°40' W 074°03'0 0.0
2017-Jan-15 00:33N 40°40' W 074°03'0 0.2
2017-Jan-14 23:33N 40°39' W 074°03'0 0.0
2017-Jan-14 22:33N 40°39' W 074°03'0 0.0
2017-Jan-14 21:33N 40°39' W 074°03'0 0.0
2017-Jan-14 20:33N 40°39' W 074°03'0 0.0
2017-Jan-14 19:33N 40°39' W 074°03'0 0.0
2017-Jan-14 18:33N 40°39' W 074°03'0 0.1
2017-Jan-14 17:33N 40°39' W 074°03'0 0.2
2017-Jan-14 16:33N 40°39' W 074°03'0 0.1
2017-Jan-14 15:33N 40°40' W 074°03'0 0.0
2017-Jan-14 14:33N 40°40' W 074°03'0 0.0
2017-Jan-14 13:33N 40°40' W 074°03'0 0.0
2017-Jan-14 12:33N 40°40' W 074°03'0 0.2
2017-Jan-14 11:33N 40°40' W 074°03'0 0.1
2017-Jan-14 10:33N 40°39' W 074°03'0 0.0
2017-Jan-14 09:33N 40°39' W 074°03'0 0.0
2017-Jan-14 08:33N 40°39' W 074°03'0 0.0
2017-Jan-14 07:33N 40°39' W 074°03'0 0.0
2017-Jan-14 06:33N 40°39' W 074°03'0 0.0
2017-Jan-14 05:33N 40°39' W 074°03'0 0.0
2017-Jan-14 04:33N 40°39' W 074°03'0 0.2
2017-Jan-14 03:33N 40°40' W 074°03'4 1.0
2017-Jan-13 23:28N 40°42' W 073°58'0 0.0
2017-Jan-13 22:33N 40°42' W 073°58'0 0.0
2017-Jan-13 21:33N 40°42' W 073°58'0 0.1
2017-Jan-13 20:33N 40°42' W 073°59'8 8.0
2017-Jan-13 19:33N 40°38' W 074°08'0 0.0
2017-Jan-13 18:33N 40°38' W 074°08'0 0.0
2017-Jan-13 17:33N 40°38' W 074°08'5 4.5
2017-Jan-13 16:33N 40°36' W 074°12'4 3.7
2017-Jan-13 15:33N 40°33' W 074°15'0 0.1
2017-Jan-13 14:32N 40°33' W 074°15'7 7.1
2017-Jan-13 13:33N 40°39' W 074°11'10 9.8
2017-Jan-13 12:33N 40°42' W 073°59'0 0.5
2017-Jan-13 11:33N 40°42' W 073°58'0 0.0
2017-Jan-13 10:33N 40°42' W 073°58'0 0.2
2017-Jan-13 09:33N 40°42' W 073°59'8 7.8
2017-Jan-13 08:33N 40°39' W 074°08'7 6.5
2017-Jan-13 07:33N 40°33' W 074°13'2 1.8
2017-Jan-13 06:33N 40°33' W 074°15'5 4.6
2017-Jan-13 05:33N 40°37' W 074°12'8 8.0
2017-Jan-13 04:33N 40°40' W 074°03'4 3.9
2017-Jan-13 03:33N 40°42' W 073°58'0 0.1
2017-Jan-13 02:33N 40°42' W 073°58'5 4.6
2017-Jan-13 01:33N 40°39' W 074°03'4 3.5
2017-Jan-13 00:32N 40°36' W 074°01'0 0.0
2017-Jan-12 23:29N 40°36' W 074°01'0 0.0
2017-Jan-12 22:32N 40°36' W 074°01'0 0.0
2017-Jan-12 21:32N 40°36' W 074°01'0 0.1
2017-Jan-12 20:32N 40°36' W 074°01'0 0.0
2017-Jan-12 19:32N 40°36' W 074°01'0 0.1
2017-Jan-12 18:32N 40°36' W 074°01'0 0.0
2017-Jan-12 17:32N 40°36' W 074°01'0 0.1
2017-Jan-12 16:32N 40°36' W 074°01'0 0.0
2017-Jan-12 15:32N 40°36' W 074°01'0 0.0
2017-Jan-12 14:32N 40°36' W 074°01'0 0.2
2017-Jan-12 13:32N 40°36' W 074°01'0 0.1
2017-Jan-12 12:32N 40°36' W 074°01'0 0.2
2017-Jan-12 11:32N 40°36' W 074°01'0 0.1
2017-Jan-12 10:32N 40°36' W 074°01'0 0.0
2017-Jan-12 09:32N 40°36' W 074°01'0 0.0
2017-Jan-12 08:32N 40°36' W 074°01'0 0.2
2017-Jan-12 07:32N 40°36' W 074°01'0 0.0
2017-Jan-12 06:32N 40°36' W 074°01'0 0.0
2017-Jan-12 05:32N 40°36' W 074°01'0 0.0
2017-Jan-12 04:32N 40°36' W 074°01'0 0.0
2017-Jan-12 03:32N 40°36' W 074°01'0 0.0
2017-Jan-12 02:32N 40°36' W 074°01'0 0.1
2017-Jan-12 01:32N 40°36' W 074°01'0 0.1
2017-Jan-12 00:32N 40°36' W 074°02'0 0.1
2017-Jan-11 23:32N 40°36' W 074°01'0 0.0
2017-Jan-11 22:32N 40°36' W 074°01'0 0.0
2017-Jan-11 21:32N 40°36' W 074°01'0 0.0
2017-Jan-11 20:32N 40°36' W 074°01'0 0.1
2017-Jan-11 19:32N 40°36' W 074°02'1 0.8
2017-Jan-11 18:33N 40°36' W 074°03'3 3.2
2017-Jan-11 17:34N 40°39' W 074°04'2 1.6
2017-Jan-11 16:34N 40°40' W 074°02'6 5.9
2017-Jan-11 15:34N 40°46' W 074°01'3 2.8
2017-Jan-11 14:33N 40°48' W 073°59'0 0.0
2017-Jan-11 13:33N 40°48' W 073°59'0 0.0
2017-Jan-11 12:33N 40°48' W 073°59'0 0.0
2017-Jan-11 11:33N 40°48' W 073°59'0 0.0
2017-Jan-11 10:33N 40°48' W 073°59'0 0.0
2017-Jan-11 09:33N 40°48' W 073°59'0 0.1
2017-Jan-11 08:33N 40°48' W 073°59'0 0.2
2017-Jan-11 07:33N 40°48' W 073°59'0 0.0
2017-Jan-11 06:33N 40°48' W 073°59'0 0.0
2017-Jan-11 05:33N 40°48' W 073°59'0 0.0
2017-Jan-11 04:33N 40°48' W 073°59'2 1.5
2017-Jan-11 03:33N 40°47' W 073°60'2 2.4
2017-Jan-11 02:33N 40°46' W 073°57'10 9.9
2017-Jan-11 01:33N 40°51' W 073°45'  

Dump ship's entire track history